createdAt,value
2018-10-11T03:07:31.129Z,32.30
2018-10-11T03:10:00.642Z,32.97
2018-10-11T03:12:30.044Z,35.07
2018-10-11T03:14:59.381Z,40.20
2018-10-11T03:17:28.847Z,52.13
2018-10-11T03:19:58.251Z,43.97
2018-10-11T03:22:27.656Z,50.37
2018-10-11T03:24:57.053Z,50.80
2018-10-11T03:27:26.559Z,52.33
2018-10-11T03:29:55.963Z,48.03
2018-10-11T03:32:25.259Z,52.03
2018-10-11T03:34:54.602Z,55.60
2018-10-11T03:37:24.015Z,52.57
2018-10-11T03:39:53.473Z,46.17
2018-10-11T03:42:22.970Z,45.60
2018-10-11T03:44:52.238Z,45.30
2018-10-11T03:47:21.876Z,43.57
2018-10-11T03:49:51.384Z,41.63
2018-10-11T03:52:20.688Z,41.37
2018-10-11T03:54:50.183Z,44.23
2018-10-11T03:57:19.789Z,42.90
2018-10-11T03:59:49.199Z,42.93
2018-10-11T04:02:18.801Z,39.43
2018-10-11T04:04:48.164Z,38.67
2018-10-11T04:07:17.496Z,40.37
2018-10-11T04:09:47.010Z,39.13
2018-10-11T04:12:16.350Z,44.27
2018-10-11T04:14:45.572Z,51.07
2018-10-11T04:17:15.209Z,50.90
2018-10-11T04:19:44.492Z,49.53
2018-10-11T04:22:13.829Z,48.53
2018-10-11T04:24:43.108Z,47.40
2018-10-11T04:27:12.423Z,50.17
2018-10-11T04:29:41.712Z,50.17
2018-10-11T04:32:11.210Z,51.50
2018-10-11T04:34:40.917Z,51.50
2018-10-11T04:37:10.546Z,52.67
2018-10-11T04:39:40.335Z,50.03
2018-10-11T04:42:10.075Z,50.63
2018-10-11T04:44:39.341Z,49.43
2018-10-11T04:47:08.857Z,52.17
2018-10-11T04:49:38.162Z,53.27
2018-10-11T04:52:07.500Z,54.07
2018-10-11T04:54:36.766Z,48.93
2018-10-11T04:57:06.073Z,49.37
2018-10-11T04:59:35.371Z,52.33
2018-10-11T05:02:04.684Z,51.33
2018-10-11T05:04:34.047Z,49.40
2018-10-11T05:07:03.425Z,49.53
2018-10-11T05:09:32.749Z,48.80
2018-10-11T05:12:02.152Z,49.07
2018-10-11T05:14:31.776Z,51.27
2018-10-11T05:17:01.366Z,53.03
2018-10-11T05:19:30.918Z,55.10
2018-10-11T05:22:00.562Z,50.10
2018-10-11T05:24:29.980Z,50.03
2018-10-11T05:26:59.288Z,44.67
2018-10-11T05:29:28.720Z,44.83
2018-10-11T05:31:58.116Z,45.03
2018-10-11T05:34:27.482Z,41.57
2018-10-11T05:36:56.739Z,41.40
2018-10-11T05:39:26.081Z,41.00
2018-10-11T05:41:55.693Z,36.20
2018-10-11T05:44:25.043Z,34.57
2018-10-11T05:46:54.444Z,34.80
2018-10-11T05:49:23.859Z,36.90
2018-10-11T05:51:53.207Z,47.73
2018-10-11T05:54:22.736Z,46.50
2018-10-11T05:56:52.338Z,47.30
2018-10-11T05:59:21.644Z,49.70
2018-10-11T06:01:51.079Z,53.17
2018-10-11T06:04:20.457Z,49.50
2018-10-11T06:06:50.026Z,45.33
2018-10-11T06:09:19.883Z,44.37
2018-10-11T06:11:49.296Z,42.40
2018-10-11T06:14:18.690Z,45.03
2018-10-11T06:16:48.016Z,43.27
2018-10-11T06:19:17.367Z,45.90
2018-10-11T06:21:46.711Z,43.80
2018-10-11T06:24:16.015Z,45.50
2018-10-11T06:26:45.356Z,42.63
2018-10-11T06:29:14.683Z,42.97
2018-10-11T06:31:44.054Z,45.80
2018-10-11T06:34:13.543Z,45.07
2018-10-11T06:36:43.073Z,45.93
2018-10-11T06:39:13.006Z,45.23
2018-10-11T06:41:42.499Z,45.13
2018-10-11T06:44:12.225Z,47.03
2018-10-11T06:46:41.481Z,48.17
2018-10-11T06:49:10.871Z,49.37
2018-10-11T06:51:40.374Z,47.70
2018-10-11T06:54:09.683Z,47.97
2018-10-11T06:56:38.914Z,46.47
2018-10-11T06:59:08.150Z,43.73
2018-10-11T07:01:37.615Z,48.83
2018-10-11T07:04:07.179Z,48.03
2018-10-11T07:06:36.519Z,44.07
2018-10-11T07:09:07.580Z,50.47
2018-10-11T07:11:36.879Z,47.03
2018-10-11T07:14:06.304Z,47.37
2018-10-11T07:16:35.727Z,46.83
2018-10-11T07:19:05.026Z,49.97
2018-10-11T07:21:34.318Z,45.57
2018-10-11T07:24:03.907Z,45.03
2018-10-11T07:26:33.770Z,45.57
2018-10-11T07:29:04.823Z,47.33
2018-10-11T07:31:35.517Z,44.23
2018-10-11T07:34:06.903Z,40.47
2018-10-11T07:36:37.183Z,37.17
2018-10-11T07:39:10.595Z,40.27
2018-10-11T07:41:40.411Z,41.33
2018-10-11T07:44:10.428Z,39.77
2018-10-11T07:46:40.507Z,41.87
2018-10-11T07:49:11.065Z,37.43
2018-10-11T07:51:41.077Z,37.87
2018-10-11T07:54:11.048Z,38.57
2018-10-11T07:56:41.949Z,38.87
2018-10-11T07:59:11.944Z,38.40
2018-10-11T08:01:42.091Z,37.10
2018-10-11T08:04:12.115Z,33.70
2018-10-11T08:06:42.457Z,33.90
2018-10-11T08:09:12.619Z,31.73
2018-10-11T08:11:44.830Z,31.57
2018-10-11T08:14:15.320Z,32.60
2018-10-11T08:16:45.644Z,32.17
2018-10-11T08:19:15.725Z,31.07
2018-10-11T08:21:45.509Z,28.47
2018-10-11T08:24:15.665Z,26.03
2018-10-11T08:26:45.839Z,25.23
2018-10-11T08:29:15.697Z,24.10
2018-10-11T08:31:45.744Z,22.27
2018-10-11T08:34:15.605Z,20.53
2018-10-11T08:36:45.740Z,19.33
2018-10-11T08:39:15.990Z,18.90
2018-10-11T08:41:46.314Z,17.97
2018-10-11T08:44:16.414Z,17.63
2018-10-11T08:46:46.254Z,17.10
2018-10-11T08:49:16.500Z,16.53
2018-10-11T08:51:46.435Z,16.97
2018-10-11T08:54:21.530Z,15.60
2018-10-11T08:56:52.043Z,15.10
2018-10-11T08:59:22.304Z,15.13
2018-10-11T09:01:52.175Z,14.80
2018-10-11T09:04:22.353Z,13.28
2018-10-11T09:06:52.308Z,13.98
2018-10-11T09:09:21.862Z,13.83
2018-10-11T09:11:51.167Z,13.10
2018-10-11T09:14:20.543Z,12.30
2018-10-11T09:16:50.309Z,10.95
2018-10-11T09:19:20.139Z,10.90
2018-10-11T09:21:49.966Z,10.95
2018-10-11T09:24:19.487Z,11.25
2018-10-11T09:26:48.959Z,10.48
2018-10-11T09:29:18.255Z,10.40
2018-10-11T09:31:47.767Z,10.78
2018-10-11T09:34:17.266Z,10.48
2018-10-11T09:36:46.598Z,10.75
2018-10-11T09:39:16.158Z,10.82
2018-10-11T09:41:45.575Z,11.05
2018-10-11T09:44:14.975Z,10.75
2018-10-11T09:46:44.464Z,11.15
2018-10-11T09:49:13.884Z,10.50
2018-10-11T09:51:43.286Z,11.18
2018-10-11T09:54:12.540Z,11.03
2018-10-11T09:57:45.498Z,11.70
2018-10-11T10:00:20.224Z,11.20
2018-10-11T10:02:50.146Z,10.82
2018-10-11T10:05:19.558Z,10.93
2018-10-11T10:07:48.941Z,10.38
2018-10-11T10:10:18.218Z,10.63
2018-10-11T10:12:47.625Z,10.63
2018-10-11T10:15:17.125Z,10.18
2018-10-11T10:17:46.523Z,10.30
2018-10-11T10:20:15.925Z,10.13
2018-10-11T10:22:45.432Z,10.05
2018-10-11T10:25:14.939Z,10.00
2018-10-11T10:27:44.348Z,9.25
2018-10-11T10:30:19.268Z,9.33
2018-10-11T10:32:48.753Z,8.93
2018-10-11T10:35:18.276Z,9.08
2018-10-11T10:37:47.574Z,9.05
2018-10-11T10:40:16.911Z,9.13
2018-10-11T10:42:46.277Z,9.28
2018-10-11T10:45:15.761Z,8.58
2018-10-11T10:47:45.094Z,8.58
2018-10-11T10:50:14.406Z,9.10
2018-10-11T10:52:43.883Z,8.35
2018-10-11T10:55:13.391Z,7.87
2018-10-11T10:57:42.686Z,8.38
2018-10-11T11:00:12.003Z,8.23
2018-10-11T11:02:41.391Z,8.23
2018-10-11T11:05:10.893Z,8.65
2018-10-11T11:07:40.401Z,7.53
2018-10-11T11:10:09.902Z,7.85
2018-10-11T11:12:39.414Z,7.80
2018-10-11T11:15:09.117Z,7.65
2018-10-11T11:17:38.623Z,7.40
2018-10-11T11:20:07.941Z,7.78
2018-10-11T11:22:37.237Z,7.42
2018-10-11T11:25:06.989Z,7.80
2018-10-11T11:27:36.535Z,7.45
2018-10-11T11:30:06.147Z,7.62
2018-10-11T11:32:35.544Z,7.50
2018-10-11T11:35:04.967Z,7.37
2018-10-11T11:37:34.346Z,7.50
2018-10-11T11:40:03.834Z,7.45
2018-10-11T11:42:33.462Z,7.22
2018-10-11T11:45:02.888Z,7.12
2018-10-11T11:47:32.470Z,7.28
2018-10-11T11:50:01.972Z,7.15
2018-10-11T11:52:31.476Z,7.33
2018-10-11T11:55:01.189Z,6.70
2018-10-11T11:57:30.793Z,6.87
2018-10-11T12:00:00.179Z,6.53
2018-10-11T12:02:29.730Z,6.30
2018-10-11T12:04:59.095Z,6.50
2018-10-11T12:07:28.518Z,6.72
2018-10-11T12:09:57.891Z,6.37
2018-10-11T12:12:59.664Z,6.45
2018-10-11T12:15:29.976Z,6.55
2018-10-11T12:18:00.677Z,6.25
2018-10-11T12:20:31.357Z,5.83
2018-10-11T12:23:01.768Z,6.05
2018-10-11T12:25:31.693Z,5.92
2018-10-11T12:28:01.195Z,5.83
2018-10-11T12:30:30.863Z,5.78
2018-10-11T12:33:00.360Z,6.00
2018-10-11T12:35:30.098Z,6.03
2018-10-11T12:37:59.330Z,5.85
2018-10-11T12:40:28.822Z,5.50
2018-10-11T12:42:58.327Z,5.80
2018-10-11T12:45:27.829Z,5.72
2018-10-11T12:47:57.333Z,5.55
2018-10-11T12:50:26.736Z,5.35
2018-10-11T12:52:56.253Z,5.20
2018-10-11T12:55:25.953Z,5.58
2018-10-11T12:57:55.334Z,5.30
2018-10-11T13:00:24.651Z,5.25
2018-10-11T13:02:54.115Z,5.30
2018-10-11T13:05:23.462Z,4.97
2018-10-11T13:07:52.763Z,5.05
2018-10-11T13:10:22.443Z,5.28
2018-10-11T13:12:51.674Z,5.15
2018-10-11T13:15:21.267Z,4.70
2018-10-11T13:17:50.772Z,5.12
2018-10-11T13:20:20.069Z,5.17
2018-10-11T13:22:49.617Z,5.00
2018-10-11T13:25:19.116Z,4.97
2018-10-11T13:27:48.506Z,5.53
2018-10-11T13:30:18.088Z,6.00
2018-10-11T13:32:47.594Z,5.92
2018-10-11T13:35:16.920Z,5.50
2018-10-11T13:37:46.198Z,5.08
2018-10-11T13:40:15.594Z,5.60
2018-10-11T13:42:44.815Z,5.58
2018-10-11T13:45:14.501Z,5.97
2018-10-11T13:47:45.459Z,5.80
2018-10-11T13:50:13.207Z,5.40
2018-10-11T13:52:42.604Z,5.90
2018-10-11T13:55:15.046Z,5.42
2018-10-11T13:57:41.616Z,5.87
2018-10-11T14:00:11.013Z,5.72
2018-10-11T14:02:40.418Z,5.85
2018-10-11T14:05:09.862Z,6.15
2018-10-11T14:07:39.326Z,6.10
2018-10-11T14:10:08.694Z,5.80
2018-10-11T14:12:38.127Z,5.90
2018-10-11T14:15:08.256Z,5.78
2018-10-11T14:17:37.609Z,5.58
2018-10-11T14:20:07.259Z,5.10
2018-10-11T14:22:36.504Z,5.72
2018-10-11T14:25:06.696Z,6.03
2018-10-11T14:27:36.280Z,5.47
2018-10-11T14:30:06.091Z,5.78
2018-10-11T14:32:35.493Z,5.60
2018-10-11T14:35:05.100Z,5.67
2018-10-11T14:37:34.607Z,5.47
2018-10-11T14:40:04.113Z,5.47
2018-10-11T14:42:33.512Z,5.72
2018-10-11T14:45:02.911Z,5.78
2018-10-11T14:47:32.414Z,5.70
2018-10-11T14:50:01.824Z,5.50
2018-10-11T14:52:31.309Z,5.58
2018-10-11T14:55:00.652Z,5.50
2018-10-11T14:57:30.128Z,5.58
2018-10-11T15:00:02.556Z,5.85
2018-10-11T15:02:32.106Z,6.62
2018-10-11T15:05:01.611Z,6.20
2018-10-11T15:07:31.011Z,6.20
2018-10-11T15:10:00.517Z,6.10
2018-10-11T15:12:30.026Z,6.22
2018-10-11T15:14:59.525Z,5.80
2018-10-11T15:17:28.852Z,5.97
2018-10-11T15:19:58.230Z,5.95
2018-10-11T15:22:27.629Z,6.55
2018-10-11T15:24:56.931Z,5.75
2018-10-11T15:27:26.332Z,5.70
2018-10-11T15:29:55.867Z,5.47
2018-10-11T15:32:25.240Z,5.35
2018-10-11T15:34:54.820Z,6.17
2018-10-11T15:37:24.346Z,5.50
2018-10-11T15:39:53.929Z,5.47
2018-10-11T15:42:23.396Z,5.12
2018-10-11T15:44:52.958Z,5.15
2018-10-11T15:47:22.232Z,5.60
2018-10-11T15:49:51.671Z,5.55
2018-10-11T15:52:21.110Z,5.10
2018-10-11T15:54:50.573Z,5.58
2018-10-11T15:57:20.076Z,5.62
2018-10-11T15:59:49.395Z,6.20
2018-10-11T16:02:18.654Z,5.45
2018-10-11T16:04:48.026Z,5.80
2018-10-11T16:07:17.273Z,5.95
2018-10-11T16:09:46.889Z,6.40
2018-10-11T16:12:16.174Z,5.83
2018-10-11T16:14:45.765Z,6.12
2018-10-11T16:17:15.191Z,5.85
2018-10-11T16:19:44.693Z,5.80
2018-10-11T16:22:14.007Z,6.00
2018-10-11T16:24:43.447Z,6.72
2018-10-11T16:27:12.759Z,7.20
2018-10-11T16:29:42.499Z,7.17
2018-10-11T16:32:12.508Z,7.42
2018-10-11T16:34:41.784Z,7.65
2018-10-11T16:37:11.313Z,6.92
2018-10-11T16:39:40.833Z,7.15
2018-10-11T16:42:10.846Z,7.25
2018-10-11T16:44:40.401Z,6.97
2018-10-11T16:47:09.955Z,7.35
2018-10-11T16:49:39.619Z,6.53
2018-10-11T16:52:09.381Z,6.50
2018-10-11T16:54:42.673Z,7.47
2018-10-11T16:57:14.070Z,7.03
2018-10-11T16:59:43.727Z,7.00
2018-10-11T17:02:13.132Z,6.90
2018-10-11T17:04:43.160Z,6.93
2018-10-11T17:07:12.651Z,6.53
2018-10-11T17:09:42.261Z,7.13
2018-10-11T17:12:11.866Z,7.13
2018-10-11T17:14:41.649Z,7.70
2018-10-11T17:17:10.901Z,8.10
2018-10-11T17:19:40.260Z,8.60
2018-10-11T17:22:09.715Z,9.23
2018-10-11T17:24:39.290Z,10.00
2018-10-11T17:27:08.741Z,10.33
2018-10-11T17:29:38.283Z,10.87
2018-10-11T17:32:08.105Z,9.73
2018-10-11T17:34:37.608Z,8.70
2018-10-11T17:37:07.316Z,8.07
2018-10-11T17:39:37.031Z,7.40
2018-10-11T17:42:06.608Z,6.73
2018-10-11T17:44:36.143Z,7.73
2018-10-11T17:47:05.548Z,8.60
2018-10-11T17:49:34.941Z,8.50
2018-10-11T17:52:04.357Z,8.53
2018-10-11T17:54:34.377Z,7.60
2018-10-11T17:57:03.967Z,7.73
2018-10-11T17:59:33.222Z,7.97
2018-10-11T18:02:03.182Z,8.10
2018-10-11T18:04:32.788Z,8.87
2018-10-11T18:07:02.190Z,8.23
2018-10-11T18:09:31.702Z,8.07
2018-10-11T18:12:01.096Z,8.23
2018-10-11T18:14:31.438Z,7.93
2018-10-11T18:17:00.713Z,8.90
2018-10-11T18:19:30.250Z,7.93
2018-10-11T18:21:59.628Z,8.07
2018-10-11T18:24:29.147Z,7.87
2018-10-11T18:26:58.635Z,8.13
2018-10-11T18:29:28.666Z,8.90
2018-10-11T18:31:59.077Z,8.20
2018-10-11T18:34:28.581Z,8.47
2018-10-11T18:36:57.843Z,8.70
2018-10-11T18:39:27.288Z,8.97
2018-10-11T18:41:56.685Z,8.07
2018-10-11T18:44:26.196Z,8.83
2018-10-11T18:46:56.821Z,8.93
2018-10-11T18:49:26.327Z,9.27
2018-10-11T18:51:55.832Z,9.00
2018-10-11T18:54:25.348Z,9.10
2018-10-11T18:56:54.940Z,9.50
2018-10-11T18:59:24.492Z,8.93
2018-10-11T19:01:54.052Z,9.27
2018-10-11T19:04:23.656Z,9.67
2018-10-11T19:06:53.266Z,9.50
2018-10-11T19:09:22.667Z,9.40
2018-10-11T19:11:52.078Z,9.00
2018-10-11T19:14:21.473Z,9.33
2018-10-11T19:16:51.185Z,9.20
2018-10-11T19:19:21.045Z,9.80
2018-10-11T19:21:50.738Z,9.17
2018-10-11T19:24:20.309Z,9.53
2018-10-11T19:26:49.812Z,10.17
2018-10-11T19:29:19.623Z,9.70
2018-10-11T19:31:49.235Z,9.70
2018-10-11T19:34:18.739Z,9.50
2018-10-11T19:36:49.366Z,9.73
2018-10-11T19:39:18.792Z,9.83
2018-10-11T19:41:49.743Z,9.67
2018-10-11T19:44:19.708Z,9.90
2018-10-11T19:46:49.027Z,9.77
2018-10-11T19:49:18.590Z,10.13
2018-10-11T19:51:48.631Z,10.27
2018-10-11T19:54:18.262Z,10.00
2018-10-11T19:56:47.860Z,10.00
2018-10-11T19:59:17.367Z,10.87
2018-10-11T20:01:47.583Z,10.60
2018-10-11T20:04:16.912Z,10.77
2018-10-11T20:06:46.387Z,10.63
2018-10-11T20:09:15.981Z,10.90
2018-10-11T20:11:45.601Z,10.73
2018-10-11T20:14:15.208Z,10.40
2018-10-11T20:16:45.942Z,11.27
2018-10-11T20:19:15.631Z,11.47
2018-10-11T20:21:45.365Z,11.33
2018-10-11T20:24:14.864Z,11.93
2018-10-11T20:26:44.470Z,12.13
2018-10-11T20:29:13.977Z,12.40
2018-10-11T20:31:43.637Z,11.87
2018-10-11T20:34:13.187Z,11.67
2018-10-11T20:36:43.819Z,11.83
2018-10-11T20:39:14.450Z,12.03
2018-10-11T20:41:44.062Z,12.43
2018-10-11T20:44:14.687Z,11.77
2018-10-11T20:46:44.351Z,11.93
2018-10-11T20:49:13.799Z,12.13
2018-10-11T20:51:43.405Z,12.27
2018-10-11T20:54:13.037Z,12.33
2018-10-11T20:56:42.377Z,11.30
2018-10-11T20:59:11.817Z,11.70
2018-10-11T21:01:41.324Z,11.63
2018-10-11T21:04:10.877Z,11.37
2018-10-11T21:06:40.453Z,11.53
2018-10-11T21:09:11.056Z,10.97
2018-10-11T21:11:40.645Z,11.60
2018-10-11T21:14:10.481Z,10.80
2018-10-11T21:16:40.191Z,10.53
2018-10-11T21:19:09.453Z,10.70
2018-10-11T21:21:38.783Z,11.27
2018-10-11T21:24:08.191Z,11.60
2018-10-11T21:26:37.799Z,11.20
2018-10-11T21:29:07.031Z,10.23
2018-10-11T21:31:37.624Z,10.30
2018-10-11T21:34:08.172Z,11.00
2018-10-11T21:36:37.615Z,10.77
2018-10-11T21:39:09.963Z,11.07
2018-10-11T21:41:39.450Z,10.47
2018-10-11T21:44:08.801Z,10.60
2018-10-11T21:46:38.337Z,10.80
2018-10-11T21:49:08.865Z,10.57
2018-10-11T21:51:38.368Z,10.30
2018-10-11T21:54:07.775Z,10.53
2018-10-11T21:56:37.231Z,11.17
2018-10-11T21:59:06.677Z,10.67
2018-10-11T22:01:36.079Z,10.67
2018-10-11T22:04:05.364Z,11.00
2018-10-11T22:06:34.663Z,10.90
2018-10-11T22:09:05.446Z,10.93
2018-10-11T22:11:34.806Z,11.00
2018-10-11T22:14:04.099Z,11.60
2018-10-11T22:16:33.516Z,10.60
2018-10-11T22:19:03.020Z,10.67
2018-10-11T22:21:32.288Z,10.43
2018-10-11T22:24:01.581Z,10.73
2018-10-11T22:26:30.893Z,10.30
2018-10-11T22:29:00.201Z,10.80
2018-10-11T22:31:29.502Z,10.37
2018-10-11T22:33:59.703Z,10.23
2018-10-11T22:36:29.167Z,10.40
2018-10-11T22:38:59.567Z,10.80
2018-10-11T22:41:48.715Z,10.63
2018-10-11T22:44:18.042Z,10.97
2018-10-11T22:46:47.433Z,11.40
2018-10-11T22:49:16.837Z,10.80
2018-10-11T22:51:46.333Z,11.47
2018-10-11T22:54:15.844Z,11.10
2018-10-11T22:56:45.348Z,11.10
2018-10-11T22:59:14.749Z,11.07
2018-10-11T23:01:44.254Z,11.10
2018-10-11T23:04:13.570Z,11.23
2018-10-11T23:06:43.058Z,10.80
2018-10-11T23:09:12.342Z,11.47
2018-10-11T23:11:41.657Z,11.20
2018-10-11T23:14:10.922Z,11.10
2018-10-11T23:16:40.259Z,11.87
2018-10-11T23:19:09.676Z,10.10
2018-10-11T23:21:38.963Z,11.47
2018-10-11T23:24:08.260Z,11.30
2018-10-11T23:26:37.760Z,10.47
2018-10-11T23:29:07.265Z,11.20
2018-10-11T23:31:36.770Z,11.67
2018-10-11T23:34:06.478Z,11.53
2018-10-11T23:36:35.791Z,11.00
2018-10-11T23:39:07.140Z,11.00
2018-10-11T23:41:36.423Z,11.80
2018-10-11T23:44:05.692Z,11.70
2018-10-11T23:46:35.170Z,12.47
2018-10-11T23:49:04.835Z,11.93
2018-10-11T23:51:34.340Z,12.70
2018-10-11T23:54:03.639Z,12.57
2018-10-11T23:56:33.149Z,13.20
2018-10-11T23:59:02.435Z,12.83
